sensor_id;sensor_type;location;lat;lon;timestamp;pressure;altitude;pressure_sealevel;temperature;humidity
36598;BME280;22607;49.550;11.940;2023-07-31T00:01:40;96857.69;;;14.98;100.00
36598;BME280;22607;49.550;11.940;2023-07-31T00:04:07;96856.72;;;14.99;100.00
36598;BME280;22607;49.550;11.940;2023-07-31T00:06:33;96855.47;;;14.88;100.00
36598;BME280;22607;49.550;11.940;2023-07-31T00:09:00;96856.88;;;14.84;100.00
36598;BME280;22607;49.550;11.940;2023-07-31T00:11:27;96854.81;;;14.79;100.00
36598;BME280;22607;49.550;11.940;2023-07-31T00:13:58;96859.47;;;14.77;100.00
36598;BME280;22607;49.550;11.940;2023-07-31T00:16:25;96856.22;;;14.82;100.00
36598;BME280;22607;49.550;11.940;2023-07-31T00:18:52;96848.53;;;14.80;100.00
36598;BME280;22607;49.550;11.940;2023-07-31T00:21:18;96851.13;;;14.74;100.00
36598;BME280;22607;49.550;11.940;2023-07-31T00:23:46;96848.00;;;14.63;100.00
36598;BME280;22607;49.550;11.940;2023-07-31T00:26:12;96854.31;;;14.62;100.00
36598;BME280;22607;49.550;11.940;2023-07-31T00:28:39;96853.88;;;14.52;100.00
36598;BME280;22607;49.550;11.940;2023-07-31T00:31:06;96852.44;;;14.49;100.00
36598;BME280;22607;49.550;11.940;2023-07-31T00:33:34;96845.34;;;14.56;100.00
36598;BME280;22607;49.550;11.940;2023-07-31T00:36:01;96837.97;;;14.45;100.00
36598;BME280;22607;49.550;11.940;2023-07-31T00:38:27;96836.59;;;14.56;100.00
36598;BME280;22607;49.550;11.940;2023-07-31T00:40:54;96844.13;;;14.59;100.00
36598;BME280;22607;49.550;11.940;2023-07-31T00:43:24;96843.34;;;14.65;100.00
36598;BME280;22607;49.550;11.940;2023-07-31T00:45:51;96839.63;;;14.53;100.00
36598;BME280;22607;49.550;11.940;2023-07-31T00:48:18;96837.38;;;14.50;100.00
36598;BME280;22607;49.550;11.940;2023-07-31T00:50:45;96826.19;;;14.41;100.00
36598;BME280;22607;49.550;11.940;2023-07-31T00:53:11;96824.91;;;14.30;100.00
36598;BME280;22607;49.550;11.940;2023-07-31T00:55:39;96837.31;;;14.29;100.00
36598;BME280;22607;49.550;11.940;2023-07-31T00:58:06;96833.84;;;14.29;100.00
36598;BME280;22607;49.550;11.940;2023-07-31T01:00:32;96830.81;;;14.32;100.00
36598;BME280;22607;49.550;11.940;2023-07-31T01:02:59;96834.28;;;14.39;100.00
36598;BME280;22607;49.550;11.940;2023-07-31T01:05:39;96823.50;;;14.34;100.00
36598;BME280;22607;49.550;11.940;2023-07-31T01:08:18;96822.03;;;14.25;100.00
36598;BME280;22607;49.550;11.940;2023-07-31T01:10:51;96824.31;;;14.28;100.00
36598;BME280;22607;49.550;11.940;2023-07-31T01:13:21;96824.69;;;14.25;100.00
36598;BME280;22607;49.550;11.940;2023-07-31T01:15:48;96830.03;;;14.03;100.00
36598;BME280;22607;49.550;11.940;2023-07-31T01:18:14;96822.38;;;14.08;100.00
36598;BME280;22607;49.550;11.940;2023-07-31T01:20:42;96826.22;;;14.06;100.00
36598;BME280;22607;49.550;11.940;2023-07-31T01:23:22;96818.72;;;14.09;100.00
36598;BME280;22607;49.550;11.940;2023-07-31T01:26:00;96819.47;;;14.03;100.00
36598;BME280;22607;49.550;11.940;2023-07-31T01:31:02;96820.50;;;14.02;100.00
36598;BME280;22607;49.550;11.940;2023-07-31T01:33:31;96804.44;;;13.97;100.00
36598;BME280;22607;49.550;11.940;2023-07-31T01:35:57;96811.41;;;14.11;100.00
36598;BME280;22607;49.550;11.940;2023-07-31T01:38:24;96804.94;;;14.21;100.00
36598;BME280;22607;49.550;11.940;2023-07-31T01:40:53;96808.41;;;14.21;100.00
36598;BME280;22607;49.550;11.940;2023-07-31T01:43:20;96805.97;;;14.20;100.00
36598;BME280;22607;49.550;11.940;2023-07-31T01:45:46;96810.22;;;14.21;100.00
36598;BME280;22607;49.550;11.940;2023-07-31T01:48:13;96800.88;;;14.18;100.00
36598;BME280;22607;49.550;11.940;2023-07-31T01:50:40;96807.81;;;14.26;100.00
36598;BME280;22607;49.550;11.940;2023-07-31T01:53:06;96801.78;;;14.39;100.00
36598;BME280;22607;49.550;11.940;2023-07-31T01:55:33;96801.34;;;14.35;100.00
36598;BME280;22607;49.550;11.940;2023-07-31T01:57:59;96794.06;;;14.37;100.00
36598;BME280;22607;49.550;11.940;2023-07-31T02:00:27;96804.66;;;14.44;100.00
36598;BME280;22607;49.550;11.940;2023-07-31T02:02:55;96804.22;;;14.40;100.00
36598;BME280;22607;49.550;11.940;2023-07-31T02:05:22;96803.44;;;14.47;100.00
36598;BME280;22607;49.550;11.940;2023-07-31T02:07:49;96800.59;;;14.48;100.00
36598;BME280;22607;49.550;11.940;2023-07-31T02:10:16;96801.00;;;14.45;100.00
36598;BME280;22607;49.550;11.940;2023-07-31T02:12:42;96793.44;;;14.42;100.00
36598;BME280;22607;49.550;11.940;2023-07-31T02:15:09;96794.13;;;14.51;100.00
36598;BME280;22607;49.550;11.940;2023-07-31T02:17:36;96785.34;;;14.43;100.00
36598;BME280;22607;49.550;11.940;2023-07-31T02:20:03;96792.47;;;14.50;100.00
36598;BME280;22607;49.550;11.940;2023-07-31T02:22:30;96783.09;;;14.47;100.00
36598;BME280;22607;49.550;11.940;2023-07-31T02:24:57;96787.81;;;14.52;100.00
36598;BME280;22607;49.550;11.940;2023-07-31T02:27:23;96774.19;;;14.48;100.00
36598;BME280;22607;49.550;11.940;2023-07-31T02:29:55;96780.06;;;14.50;100.00
36598;BME280;22607;49.550;11.940;2023-07-31T02:32:22;96770.31;;;14.51;100.00
36598;BME280;22607;49.550;11.940;2023-07-31T02:34:48;96764.41;;;14.49;100.00
36598;BME280;22607;49.550;11.940;2023-07-31T02:37:15;96773.34;;;14.48;100.00
36598;BME280;22607;49.550;11.940;2023-07-31T02:39:41;96768.91;;;14.55;100.00
36598;BME280;22607;49.550;11.940;2023-07-31T02:42:10;96768.28;;;14.53;100.00
36598;BME280;22607;49.550;11.940;2023-07-31T02:44:36;96759.97;;;14.56;100.00
36598;BME280;22607;49.550;11.940;2023-07-31T02:47:03;96755.22;;;14.31;100.00
36598;BME280;22607;49.550;11.940;2023-07-31T02:49:30;96762.78;;;14.41;100.00
36598;BME280;22607;49.550;11.940;2023-07-31T02:51:57;96754.38;;;14.24;100.00
36598;BME280;22607;49.550;11.940;2023-07-31T02:54:23;96756.66;;;14.40;100.00
36598;BME280;22607;49.550;11.940;2023-07-31T02:56:50;96757.50;;;14.48;100.00
36598;BME280;22607;49.550;11.940;2023-07-31T02:59:17;96755.44;;;14.36;100.00
36598;BME280;22607;49.550;11.940;2023-07-31T03:01:45;96754.25;;;14.46;100.00
36598;BME280;22607;49.550;11.940;2023-07-31T03:04:11;96749.75;;;14.39;100.00
36598;BME280;22607;49.550;11.940;2023-07-31T03:06:38;96753.47;;;14.52;100.00
36598;BME280;22607;49.550;11.940;2023-07-31T03:09:05;96748.78;;;14.54;100.00
36598;BME280;22607;49.550;11.940;2023-07-31T03:11:32;96755.72;;;14.62;100.00
36598;BME280;22607;49.550;11.940;2023-07-31T03:13:58;96754.66;;;14.49;100.00
36598;BME280;22607;49.550;11.940;2023-07-31T03:16:25;96748.56;;;14.49;100.00
36598;BME280;22607;49.550;11.940;2023-07-31T03:18:52;96752.03;;;14.49;100.00
36598;BME280;22607;49.550;11.940;2023-07-31T03:21:18;96762.31;;;14.24;100.00
36598;BME280;22607;49.550;11.940;2023-07-31T03:23:45;96745.44;;;14.25;100.00
36598;BME280;22607;49.550;11.940;2023-07-31T03:26:11;96763.13;;;14.31;100.00
36598;BME280;22607;49.550;11.940;2023-07-31T03:28:39;96753.03;;;14.48;100.00
36598;BME280;22607;49.550;11.940;2023-07-31T03:31:06;96752.19;;;14.34;100.00
36598;BME280;22607;49.550;11.940;2023-07-31T03:33:34;96760.09;;;14.34;100.00
36598;BME280;22607;49.550;11.940;2023-07-31T03:36:01;96760.75;;;14.43;100.00
36598;BME280;22607;49.550;11.940;2023-07-31T03:38:28;96759.94;;;14.42;100.00
36598;BME280;22607;49.550;11.940;2023-07-31T03:40:55;96752.56;;;14.31;100.00
36598;BME280;22607;49.550;11.940;2023-07-31T03:43:21;96753.81;;;14.42;100.00
36598;BME280;22607;49.550;11.940;2023-07-31T03:45:48;96761.13;;;14.33;100.00
36598;BME280;22607;49.550;11.940;2023-07-31T03:48:15;96760.75;;;14.36;100.00
36598;BME280;22607;49.550;11.940;2023-07-31T03:50:43;96759.97;;;14.56;100.00
36598;BME280;22607;49.550;11.940;2023-07-31T03:53:09;96761.22;;;14.60;100.00
36598;BME280;22607;49.550;11.940;2023-07-31T03:55:36;96755.47;;;14.56;100.00
36598;BME280;22607;49.550;11.940;2023-07-31T03:58:02;96745.75;;;14.64;100.00
36598;BME280;22607;49.550;11.940;2023-07-31T04:00:29;96749.81;;;14.66;100.00
36598;BME280;22607;49.550;11.940;2023-07-31T04:02:55;96743.38;;;14.76;100.00
36598;BME280;22607;49.550;11.940;2023-07-31T04:05:22;96730.09;;;14.69;100.00
36598;BME280;22607;49.550;11.940;2023-07-31T04:07:48;96744.59;;;14.87;100.00
36598;BME280;22607;49.550;11.940;2023-07-31T04:10:15;96745.84;;;14.91;100.00
36598;BME280;22607;49.550;11.940;2023-07-31T04:12:42;96743.78;;;15.00;100.00
36598;BME280;22607;49.550;11.940;2023-07-31T04:15:09;96742.56;;;14.95;100.00
36598;BME280;22607;49.550;11.940;2023-07-31T04:17:35;96735.84;;;14.86;100.00
36598;BME280;22607;49.550;11.940;2023-07-31T04:20:02;96736.06;;;14.98;100.00
36598;BME280;22607;49.550;11.940;2023-07-31T04:22:30;96747.47;;;14.99;100.00
36598;BME280;22607;49.550;11.940;2023-07-31T04:24:56;96741.13;;;14.86;100.00
36598;BME280;22607;49.550;11.940;2023-07-31T04:27:23;96745.84;;;14.98;100.00
36598;BME280;22607;49.550;11.940;2023-07-31T04:29:51;96745.00;;;14.90;100.00
36598;BME280;22607;49.550;11.940;2023-07-31T04:32:17;96738.13;;;15.16;100.00
36598;BME280;22607;49.550;11.940;2023-07-31T04:34:44;96745.03;;;15.17;100.00
36598;BME280;22607;49.550;11.940;2023-07-31T04:37:10;96742.56;;;15.09;100.00
36598;BME280;22607;49.550;11.940;2023-07-31T04:39:37;96741.78;;;15.15;100.00
36598;BME280;22607;49.550;11.940;2023-07-31T04:42:03;96737.91;;;15.25;100.00
36598;BME280;22607;49.550;11.940;2023-07-31T04:44:30;96738.31;;;15.21;100.00
36598;BME280;22607;49.550;11.940;2023-07-31T04:46:57;96730.56;;;15.33;100.00
36598;BME280;22607;49.550;11.940;2023-07-31T04:49:23;96730.75;;;15.45;100.00
36598;BME280;22607;49.550;11.940;2023-07-31T04:51:50;96720.97;;;16.25;100.00
36598;BME280;22607;49.550;11.940;2023-07-31T04:54:16;96705.00;;;16.71;94.22
36598;BME280;22607;49.550;11.940;2023-07-31T04:56:43;96711.28;;;16.45;97.13
36598;BME280;22607;49.550;11.940;2023-07-31T04:59:09;96728.31;;;16.23;96.26
36598;BME280;22607;49.550;11.940;2023-07-31T05:01:36;96726.28;;;16.19;99.74
36598;BME280;22607;49.550;11.940;2023-07-31T05:04:03;96729.00;;;16.05;100.00
36598;BME280;22607;49.550;11.940;2023-07-31T05:06:29;96716.75;;;16.11;100.00
36598;BME280;22607;49.550;11.940;2023-07-31T05:08:56;96723.25;;;16.15;100.00
36598;BME280;22607;49.550;11.940;2023-07-31T05:11:23;96728.19;;;16.05;100.00
36598;BME280;22607;49.550;11.940;2023-07-31T05:13:49;96732.47;;;16.06;100.00
36598;BME280;22607;49.550;11.940;2023-07-31T05:16:18;96731.06;;;16.03;100.00
36598;BME280;22607;49.550;11.940;2023-07-31T05:18:47;96727.56;;;16.03;100.00
36598;BME280;22607;49.550;11.940;2023-07-31T05:21:13;96724.28;;;16.14;100.00
36598;BME280;22607;49.550;11.940;2023-07-31T05:23:40;96722.00;;;16.24;100.00
36598;BME280;22607;49.550;11.940;2023-07-31T05:26:07;96724.41;;;16.33;99.36
36598;BME280;22607;49.550;11.940;2023-07-31T05:28:35;96723.13;;;16.42;100.00
36598;BME280;22607;49.550;11.940;2023-07-31T05:31:03;96724.50;;;16.51;99.46
36598;BME280;22607;49.550;11.940;2023-07-31T05:33:30;96722.03;;;16.57;98.38
36598;BME280;22607;49.550;11.940;2023-07-31T05:35:58;96725.38;;;16.71;99.13
36598;BME280;22607;49.550;11.940;2023-07-31T05:38:24;96730.06;;;17.08;92.89
36598;BME280;22607;49.550;11.940;2023-07-31T05:40:51;96712.09;;;17.91;85.92
36598;BME280;22607;49.550;11.940;2023-07-31T05:43:17;96721.03;;;17.97;85.83
36598;BME280;22607;49.550;11.940;2023-07-31T05:45:44;96722.19;;;18.39;80.50
36598;BME280;22607;49.550;11.940;2023-07-31T05:48:11;96715.59;;;18.41;79.18
36598;BME280;22607;49.550;11.940;2023-07-31T05:50:37;96714.97;;;17.90;85.13
36598;BME280;22607;49.550;11.940;2023-07-31T05:53:06;96713.06;;;17.97;82.42
36598;BME280;22607;49.550;11.940;2023-07-31T05:55:34;96703.03;;;18.60;78.23
36598;BME280;22607;49.550;11.940;2023-07-31T05:58:01;96708.00;;;18.57;78.10
36598;BME280;22607;49.550;11.940;2023-07-31T06:00:28;96713.84;;;19.08;75.67
36598;BME280;22607;49.550;11.940;2023-07-31T06:02:54;96705.75;;;19.15;72.45
36598;BME280;22607;49.550;11.940;2023-07-31T06:05:21;96701.56;;;19.31;72.44
36598;BME280;22607;49.550;11.940;2023-07-31T06:07:48;96702.81;;;19.17;72.72
36598;BME280;22607;49.550;11.940;2023-07-31T06:10:18;96707.66;;;18.53;75.79
36598;BME280;22607;49.550;11.940;2023-07-31T06:12:59;96709.72;;;18.02;79.56
36598;BME280;22607;49.550;11.940;2023-07-31T06:15:26;96710.31;;;18.22;80.39
36598;BME280;22607;49.550;11.940;2023-07-31T06:17:52;96704.97;;;18.10;79.78
36598;BME280;22607;49.550;11.940;2023-07-31T06:20:28;96704.47;;;18.32;78.90
36598;BME280;22607;49.550;11.940;2023-07-31T06:23:02;96714.50;;;18.30;80.31
36598;BME280;22607;49.550;11.940;2023-07-31T06:25:45;96712.44;;;18.32;81.60
36598;BME280;22607;49.550;11.940;2023-07-31T06:28:12;96710.63;;;18.45;78.09
36598;BME280;22607;49.550;11.940;2023-07-31T06:30:38;96708.75;;;18.64;77.54
36598;BME280;22607;49.550;11.940;2023-07-31T06:33:05;96710.84;;;18.74;74.54
36598;BME280;22607;49.550;11.940;2023-07-31T06:35:31;96708.66;;;18.71;77.83
36598;BME280;22607;49.550;11.940;2023-07-31T06:37:58;96705.31;;;18.45;78.77
36598;BME280;22607;49.550;11.940;2023-07-31T06:40:24;96702.53;;;18.82;76.36
36598;BME280;22607;49.550;11.940;2023-07-31T06:42:51;96706.41;;;19.10;74.09
36598;BME280;22607;49.550;11.940;2023-07-31T06:45:17;96699.81;;;19.25;72.69
36598;BME280;22607;49.550;11.940;2023-07-31T06:47:48;96705.22;;;20.02;69.44
36598;BME280;22607;49.550;11.940;2023-07-31T06:50:14;96687.22;;;20.09;68.70
36598;BME280;22607;49.550;11.940;2023-07-31T06:52:41;96699.75;;;20.38;69.39
36598;BME280;22607;49.550;11.940;2023-07-31T06:55:19;96688.44;;;21.11;63.88
36598;BME280;22607;49.550;11.940;2023-07-31T06:57:47;96686.97;;;20.86;63.75
36598;BME280;22607;49.550;11.940;2023-07-31T07:00:15;96695.81;;;21.04;64.06
36598;BME280;22607;49.550;11.940;2023-07-31T07:02:41;96694.25;;;21.08;62.38
36598;BME280;22607;49.550;11.940;2023-07-31T07:05:08;96695.03;;;20.57;63.42
36598;BME280;22607;49.550;11.940;2023-07-31T07:07:35;96688.94;;;20.44;63.66
36598;BME280;22607;49.550;11.940;2023-07-31T07:10:03;96698.00;;;20.43;63.60
36598;BME280;22607;49.550;11.940;2023-07-31T07:12:30;96700.34;;;20.28;64.68
36598;BME280;22607;49.550;11.940;2023-07-31T07:14:57;96696.47;;;20.48;64.13
36598;BME280;22607;49.550;11.940;2023-07-31T07:17:24;96699.56;;;20.73;64.36
36598;BME280;22607;49.550;11.940;2023-07-31T07:19:51;96698.75;;;20.73;63.10
36598;BME280;22607;49.550;11.940;2023-07-31T07:22:20;96689.47;;;20.76;61.53
36598;BME280;22607;49.550;11.940;2023-07-31T07:24:48;96687.03;;;20.57;62.36
36598;BME280;22607;49.550;11.940;2023-07-31T07:27:14;96706.34;;;20.06;64.58
36598;BME280;22607;49.550;11.940;2023-07-31T07:29:41;96700.94;;;20.01;63.82
36598;BME280;22607;49.550;11.940;2023-07-31T07:32:08;96702.94;;;20.23;63.17
36598;BME280;22607;49.550;11.940;2023-07-31T07:34:35;96708.84;;;20.25;63.41
36598;BME280;22607;49.550;11.940;2023-07-31T07:37:01;96701.81;;;20.06;64.51
36598;BME280;22607;49.550;11.940;2023-07-31T07:39:28;96694.06;;;20.05;64.71
36598;BME280;22607;49.550;11.940;2023-07-31T07:41:56;96706.50;;;20.28;63.22
36598;BME280;22607;49.550;11.940;2023-07-31T07:44:23;96712.72;;;20.05;64.35
36598;BME280;22607;49.550;11.940;2023-07-31T07:46:50;96697.09;;;19.97;65.32
36598;BME280;22607;49.550;11.940;2023-07-31T07:49:16;96699.38;;;20.05;64.34
36598;BME280;22607;49.550;11.940;2023-07-31T07:51:43;96698.03;;;20.31;63.90
36598;BME280;22607;49.550;11.940;2023-07-31T07:54:09;96702.97;;;20.11;64.36
36598;BME280;22607;49.550;11.940;2023-07-31T07:56:36;96703.09;;;20.04;63.72
36598;BME280;22607;49.550;11.940;2023-07-31T07:59:03;96704.56;;;20.53;63.21
36598;BME280;22607;49.550;11.940;2023-07-31T08:01:30;96707.63;;;20.62;61.92
36598;BME280;22607;49.550;11.940;2023-07-31T08:03:57;96719.03;;;20.28;64.61
36598;BME280;22607;49.550;11.940;2023-07-31T08:06:25;96706.84;;;20.78;61.87
36598;BME280;22607;49.550;11.940;2023-07-31T08:08:52;96711.47;;;20.83;62.45
36598;BME280;22607;49.550;11.940;2023-07-31T08:11:19;96704.28;;;20.83;63.43
36598;BME280;22607;49.550;11.940;2023-07-31T08:13:45;96717.50;;;21.07;62.04
36598;BME280;22607;49.550;11.940;2023-07-31T08:16:12;96715.28;;;21.04;60.81
36598;BME280;22607;49.550;11.940;2023-07-31T08:18:41;96719.09;;;21.25;61.07
36598;BME280;22607;49.550;11.940;2023-07-31T08:21:09;96709.75;;;21.45;59.90
36598;BME280;22607;49.550;11.940;2023-07-31T08:23:36;96710.25;;;21.42;59.42
36598;BME280;22607;49.550;11.940;2023-07-31T08:26:02;96714.13;;;21.91;58.36
36598;BME280;22607;49.550;11.940;2023-07-31T08:28:29;96702.25;;;22.81;55.16
36598;BME280;22607;49.550;11.940;2023-07-31T08:30:55;96694.34;;;22.97;55.29
36598;BME280;22607;49.550;11.940;2023-07-31T08:33:22;96696.22;;;22.64;53.88
36598;BME280;22607;49.550;11.940;2023-07-31T08:35:48;96694.16;;;22.21;54.96
36598;BME280;22607;49.550;11.940;2023-07-31T08:38:15;96687.69;;;22.17;56.87
36598;BME280;22607;49.550;11.940;2023-07-31T08:40:41;96685.16;;;22.05;56.45
36598;BME280;22607;49.550;11.940;2023-07-31T08:43:09;96682.47;;;21.83;57.01
36598;BME280;22607;49.550;11.940;2023-07-31T08:45:36;96674.91;;;21.74;59.02
36598;BME280;22607;49.550;11.940;2023-07-31T08:48:03;96682.28;;;22.12;56.93
36598;BME280;22607;49.550;11.940;2023-07-31T08:50:31;96674.72;;;22.03;56.62
36598;BME280;22607;49.550;11.940;2023-07-31T08:52:58;96674.16;;;21.79;58.20
36598;BME280;22607;49.550;11.940;2023-07-31T08:55:24;96669.03;;;22.22;57.89
36598;BME280;22607;49.550;11.940;2023-07-31T08:57:52;96670.94;;;22.27;56.37
36598;BME280;22607;49.550;11.940;2023-07-31T09:00:23;96670.16;;;22.26;56.56
36598;BME280;22607;49.550;11.940;2023-07-31T09:02:59;96664.28;;;22.29;56.42
36598;BME280;22607;49.550;11.940;2023-07-31T09:05:29;96658.03;;;22.46;55.37
36598;BME280;22607;49.550;11.940;2023-07-31T09:07:57;96650.41;;;22.05;56.17
36598;BME280;22607;49.550;11.940;2023-07-31T09:10:24;96642.94;;;22.35;54.93
36598;BME280;22607;49.550;11.940;2023-07-31T09:12:51;96648.00;;;22.59;56.12
36598;BME280;22607;49.550;11.940;2023-07-31T09:15:18;96627.41;;;22.97;55.18
36598;BME280;22607;49.550;11.940;2023-07-31T09:18:03;96641.94;;;23.06;56.16
36598;BME280;22607;49.550;11.940;2023-07-31T09:20:31;96641.22;;;22.84;55.15
36598;BME280;22607;49.550;11.940;2023-07-31T09:25:34;96636.75;;;22.94;53.89
36598;BME280;22607;49.550;11.940;2023-07-31T09:28:02;96632.31;;;23.11;54.83
36598;BME280;22607;49.550;11.940;2023-07-31T09:30:29;96643.94;;;23.75;54.49
36598;BME280;22607;49.550;11.940;2023-07-31T09:33:06;96632.19;;;23.97;52.94
36598;BME280;22607;49.550;11.940;2023-07-31T09:35:34;96626.53;;;23.93;53.43
36598;BME280;22607;49.550;11.940;2023-07-31T09:38:13;96635.50;;;24.30;50.63
36598;BME280;22607;49.550;11.940;2023-07-31T09:40:44;96633.72;;;23.72;52.47
36598;BME280;22607;49.550;11.940;2023-07-31T09:43:12;96623.38;;;24.07;51.99
36598;BME280;22607;49.550;11.940;2023-07-31T09:45:41;96618.31;;;24.21;51.18
36598;BME280;22607;49.550;11.940;2023-07-31T09:48:16;96616.56;;;23.73;51.85
36598;BME280;22607;49.550;11.940;2023-07-31T09:50:45;96617.69;;;23.93;51.92
36598;BME280;22607;49.550;11.940;2023-07-31T09:53:12;96636.16;;;23.84;52.12
36598;BME280;22607;49.550;11.940;2023-07-31T09:55:40;96623.41;;;24.28;51.05
36598;BME280;22607;49.550;11.940;2023-07-31T09:58:09;96607.09;;;24.45;48.83
36598;BME280;22607;49.550;11.940;2023-07-31T10:00:37;96617.84;;;24.97;48.09
36598;BME280;22607;49.550;11.940;2023-07-31T10:03:07;96601.97;;;25.00;47.50
36598;BME280;22607;49.550;11.940;2023-07-31T10:05:39;96606.53;;;25.10;47.52
36598;BME280;22607;49.550;11.940;2023-07-31T10:08:09;96590.63;;;25.24;48.06
36598;BME280;22607;49.550;11.940;2023-07-31T10:10:37;96590.94;;;24.81;47.53
36598;BME280;22607;49.550;11.940;2023-07-31T10:13:07;96592.81;;;25.17;47.53
36598;BME280;22607;49.550;11.940;2023-07-31T10:15:35;96594.91;;;25.30;47.23
36598;BME280;22607;49.550;11.940;2023-07-31T10:18:06;96602.78;;;24.80;47.26
36598;BME280;22607;49.550;11.940;2023-07-31T10:20:34;96586.94;;;24.99;46.12
36598;BME280;22607;49.550;11.940;2023-07-31T10:23:01;96581.84;;;24.87;45.91
36598;BME280;22607;49.550;11.940;2023-07-31T10:25:29;96584.81;;;24.55;47.47
36598;BME280;22607;49.550;11.940;2023-07-31T10:27:57;96564.69;;;24.42;47.88
36598;BME280;22607;49.550;11.940;2023-07-31T10:30:27;96582.91;;;24.81;47.46
36598;BME280;22607;49.550;11.940;2023-07-31T10:32:56;96585.34;;;24.46;46.90
36598;BME280;22607;49.550;11.940;2023-07-31T10:35:23;96577.50;;;25.07;46.80
36598;BME280;22607;49.550;11.940;2023-07-31T10:37:51;96584.00;;;24.44;46.66
36598;BME280;22607;49.550;11.940;2023-07-31T10:40:26;96567.56;;;24.09;48.02
36598;BME280;22607;49.550;11.940;2023-07-31T10:42:56;96561.97;;;24.57;46.70
36598;BME280;22607;49.550;11.940;2023-07-31T10:48:00;96578.38;;;24.24;46.64
36598;BME280;22607;49.550;11.940;2023-07-31T10:50:28;96568.69;;;24.86;44.89
36598;BME280;22607;49.550;11.940;2023-07-31T10:52:56;96561.25;;;25.49;46.38
36598;BME280;22607;49.550;11.940;2023-07-31T10:55:32;96546.38;;;25.06;45.31
36598;BME280;22607;49.550;11.940;2023-07-31T10:58:09;96550.63;;;25.12;46.64
36598;BME280;22607;49.550;11.940;2023-07-31T11:00:38;96548.78;;;24.97;45.97
36598;BME280;22607;49.550;11.940;2023-07-31T11:03:10;96527.34;;;24.76;46.30
36598;BME280;22607;49.550;11.940;2023-07-31T11:08:27;96537.56;;;24.17;47.76
36598;BME280;22607;49.550;11.940;2023-07-31T11:13:31;96518.00;;;25.40;46.84
36598;BME280;22607;49.550;11.940;2023-07-31T11:15:58;96519.75;;;25.10;47.31
36598;BME280;22607;49.550;11.940;2023-07-31T11:18:28;96515.16;;;25.21;46.34
36598;BME280;22607;49.550;11.940;2023-07-31T11:20:54;96515.78;;;24.97;45.88
36598;BME280;22607;49.550;11.940;2023-07-31T11:23:22;96519.50;;;24.96;46.65
36598;BME280;22607;49.550;11.940;2023-07-31T11:25:49;96517.72;;;24.39;47.25
36598;BME280;22607;49.550;11.940;2023-07-31T11:28:18;96520.66;;;24.37;47.89
36598;BME280;22607;49.550;11.940;2023-07-31T11:30:45;96520.69;;;24.32;48.99
36598;BME280;22607;49.550;11.940;2023-07-31T11:33:13;96515.25;;;23.96;48.52
36598;BME280;22607;49.550;11.940;2023-07-31T11:35:48;96511.00;;;24.21;48.76
36598;BME280;22607;49.550;11.940;2023-07-31T11:38:34;96494.06;;;24.62;48.46
36598;BME280;22607;49.550;11.940;2023-07-31T11:41:03;96500.97;;;25.04;47.20
36598;BME280;22607;49.550;11.940;2023-07-31T11:43:34;96492.66;;;24.96;46.55
36598;BME280;22607;49.550;11.940;2023-07-31T11:46:02;96476.59;;;24.75;45.45
36598;BME280;22607;49.550;11.940;2023-07-31T11:48:34;96489.28;;;24.38;46.77
36598;BME280;22607;49.550;11.940;2023-07-31T11:51:10;96496.53;;;24.22;48.27
36598;BME280;22607;49.550;11.940;2023-07-31T11:53:56;96497.34;;;24.12;48.24
36598;BME280;22607;49.550;11.940;2023-07-31T11:56:24;96496.25;;;24.18;49.55
36598;BME280;22607;49.550;11.940;2023-07-31T11:58:59;96476.13;;;24.47;49.37
36598;BME280;22607;49.550;11.940;2023-07-31T12:01:28;96484.94;;;24.63;47.40
36598;BME280;22607;49.550;11.940;2023-07-31T12:03:56;96487.31;;;24.85;47.34
36598;BME280;22607;49.550;11.940;2023-07-31T12:06:32;96488.38;;;24.95;46.29
36598;BME280;22607;49.550;11.940;2023-07-31T12:09:03;96480.03;;;25.01;47.75
36598;BME280;22607;49.550;11.940;2023-07-31T12:11:31;96485.03;;;25.19;47.50
36598;BME280;22607;49.550;11.940;2023-07-31T12:14:21;96488.38;;;24.89;47.25
36598;BME280;22607;49.550;11.940;2023-07-31T12:16:53;96481.25;;;25.30;46.82
36598;BME280;22607;49.550;11.940;2023-07-31T12:19:20;96475.16;;;25.09;45.72
36598;BME280;22607;49.550;11.940;2023-07-31T12:21:49;96483.31;;;24.67;47.72
36598;BME280;22607;49.550;11.940;2023-07-31T12:24:18;96464.31;;;24.43;46.07
36598;BME280;22607;49.550;11.940;2023-07-31T12:26:45;96470.09;;;25.02;46.09
36598;BME280;22607;49.550;11.940;2023-07-31T12:29:13;96470.53;;;25.25;46.91
36598;BME280;22607;49.550;11.940;2023-07-31T12:31:41;96467.84;;;25.25;45.83
36598;BME280;22607;49.550;11.940;2023-07-31T12:34:18;96462.38;;;24.69;46.72
36598;BME280;22607;49.550;11.940;2023-07-31T12:36:45;96470.72;;;24.57;48.58
36598;BME280;22607;49.550;11.940;2023-07-31T12:39:13;96473.47;;;24.31;48.14
36598;BME280;22607;49.550;11.940;2023-07-31T12:41:39;96469.41;;;24.39;47.56
36598;BME280;22607;49.550;11.940;2023-07-31T12:44:06;96464.84;;;24.34;48.30
36598;BME280;22607;49.550;11.940;2023-07-31T12:46:33;96469.94;;;24.46;47.92
36598;BME280;22607;49.550;11.940;2023-07-31T12:49:00;96449.25;;;24.57;47.08
36598;BME280;22607;49.550;11.940;2023-07-31T12:51:27;96447.03;;;24.80;46.59
36598;BME280;22607;49.550;11.940;2023-07-31T12:53:54;96443.31;;;24.65;46.71
36598;BME280;22607;49.550;11.940;2023-07-31T12:56:20;96446.53;;;24.83;46.56
36598;BME280;22607;49.550;11.940;2023-07-31T12:58:47;96443.00;;;24.83;46.01
36598;BME280;22607;49.550;11.940;2023-07-31T13:01:14;96436.69;;;24.32;48.11
36598;BME280;22607;49.550;11.940;2023-07-31T13:03:40;96422.03;;;24.95;47.38